Time;durP1;ratioP1;P1;durP2;ratioP2;P2;SDS_P1;SDS_P2;PMS_P1;PMS_P2;Temp;Humidity;BMP_temperature;BMP_pressure;BME280_temperature;BME280_humidity;BME280_pressure;Samples;Min_cycle;Max_cycle;Signal;HPM_P1;HPM_P2
2023/04/30 00:00:26;;;;;;;;;23.25;21.25;;;;;;;;5013135;28;45416;-74
2023/04/30 00:02:52;;;;;;;;;23.25;21.75;;;;;;;;5012911;28;45503;-74
2023/04/30 00:05:17;;;;;;;;;25.00;23.25;;;;;;;;5010196;28;45441;-74
2023/04/30 00:07:42;;;;;;;;;21.75;21.50;;;;;;;;5013616;28;45370;-74
2023/04/30 00:10:11;;;;;;;;;23.50;23.00;;;;;;;;5014019;28;45379;-74
2023/04/30 00:12:36;;;;;;;;;21.00;19.00;;;;;;;;5013882;28;45272;-74
2023/04/30 00:15:02;;;;;;;;;20.75;19.75;;;;;;;;5013048;28;46342;-74
2023/04/30 00:17:27;;;;;;;;;22.75;22.25;;;;;;;;5014948;28;45489;-74
2023/04/30 00:19:52;;;;;;;;;26.75;23.75;;;;;;;;5013614;28;45328;-74
2023/04/30 00:22:18;;;;;;;;;25.50;22.50;;;;;;;;5013730;28;45356;-74
2023/04/30 00:24:43;;;;;;;;;27.00;22.75;;;;;;;;5012221;28;47317;-74
2023/04/30 00:27:08;;;;;;;;;21.25;18.75;;;;;;;;5013589;28;45496;-74
2023/04/30 00:29:33;;;;;;;;;24.00;21.25;;;;;;;;5020132;28;45389;-73
2023/04/30 00:31:58;;;;;;;;;21.00;21.00;;;;;;;;5019173;28;45409;-73
2023/04/30 00:34:24;;;;;;;;;30.50;25.00;;;;;;;;5012827;28;46924;-73
2023/04/30 00:36:50;;;;;;;;;24.75;23.75;;;;;;;;5013440;28;45417;-73
2023/04/30 00:39:15;;;;;;;;;23.50;19.00;;;;;;;;5013596;28;45431;-74
2023/04/30 00:41:41;;;;;;;;;23.25;21.75;;;;;;;;5023140;28;45626;-74
2023/04/30 00:44:06;;;;;;;;;26.00;22.00;;;;;;;;5020797;28;45688;-72
2023/04/30 00:46:31;;;;;;;;;25.00;22.75;;;;;;;;5016963;28;45565;-75
2023/04/30 00:48:57;;;;;;;;;20.50;18.25;;;;;;;;5016864;28;45501;-73
2023/04/30 00:51:22;;;;;;;;;22.00;21.00;;;;;;;;5017716;28;45450;-72
2023/04/30 00:53:48;;;;;;;;;22.75;20.50;;;;;;;;5016882;28;45621;-74
2023/04/30 00:56:16;;;;;;;;;24.50;21.75;;;;;;;;5016976;28;45427;-73
2023/04/30 00:58:42;;;;;;;;;20.00;19.75;;;;;;;;5028872;28;45404;-73
2023/04/30 01:01:07;;;;;;;;;21.00;18.75;;;;;;;;5016800;28;45430;-73
2023/04/30 01:03:34;;;;;;;;;24.75;23.75;;;;;;;;5016290;28;46478;-73
2023/04/30 01:06:00;;;;;;;;;26.75;22.25;;;;;;;;5015363;28;45392;-73
2023/04/30 01:08:25;;;;;;;;;21.25;19.50;;;;;;;;5016401;28;45431;-73
2023/04/30 01:10:56;;;;;;;;;21.50;20.50;;;;;;;;5028374;28;45363;-74
2023/04/30 01:13:27;;;;;;;;;23.50;22.75;;;;;;;;5016790;28;45382;-74
2023/04/30 01:15:59;;;;;;;;;23.25;19.00;;;;;;;;5012643;28;45840;-74
2023/04/30 01:18:27;;;;;;;;;21.00;21.00;;;;;;;;5002103;28;45343;-74
2023/04/30 01:20:53;;;;;;;;;22.25;19.50;;;;;;;;5016771;28;45782;-73
2023/04/30 01:23:28;;;;;;;;;26.25;24.50;;;;;;;;5016838;28;45361;-73
2023/04/30 01:25:56;;;;;;;;;24.50;20.25;;;;;;;;5017026;28;45424;-74
2023/04/30 01:28:23;;;;;;;;;23.50;21.00;;;;;;;;5016853;28;45307;-73
2023/04/30 01:30:49;;;;;;;;;24.25;24.25;;;;;;;;5016673;28;45423;-74
2023/04/30 01:33:14;;;;;;;;;27.00;24.25;;;;;;;;5020661;28;45332;-73
2023/04/30 01:35:57;;;;;;;;;22.75;21.75;;;;;;;;5037205;28;45275;-73
2023/04/30 01:38:34;;;;;;;;;25.25;19.50;;;;;;;;5036745;28;45340;-75
2023/04/30 01:41:12;;;;;;;;;25.25;23.75;;;;;;;;5036459;28;45534;-75
2023/04/30 01:44:04;;;;;;;;;24.00;23.00;;;;;;;;5036473;28;48136;-76
2023/04/30 01:46:29;;;;;;;;;24.00;22.00;;;;;;;;5033085;28;45295;-76
2023/04/30 01:48:57;;;;;;;;;22.00;19.75;;;;;;;;5036181;28;45541;-75
2023/04/30 01:51:42;;;;;;;;;24.00;21.50;;;;;;;;5035303;28;45380;-76
2023/04/30 01:54:14;;;;;;;;;27.50;23.50;;;;;;;;5036369;28;45461;-75
2023/04/30 01:56:43;;;;;;;;;25.00;23.25;;;;;;;;5036490;28;45474;-75
2023/04/30 01:59:09;;;;;;;;;22.25;19.25;;;;;;;;5035215;28;45400;-74
2023/04/30 02:01:34;;;;;;;;;21.75;21.75;;;;;;;;5034730;28;45359;-74
2023/04/30 02:03:59;;;;;;;;;25.50;23.25;;;;;;;;5035998;28;46479;-75
2023/04/30 02:06:28;;;;;;;;;20.25;20.25;;;;;;;;5036253;28;45462;-75
2023/04/30 02:09:01;;;;;;;;;21.50;21.25;;;;;;;;5036415;28;45541;-75
2023/04/30 02:11:27;;;;;;;;;20.50;19.25;;;;;;;;5036026;28;45438;-73
2023/04/30 02:13:52;;;;;;;;;26.75;23.25;;;;;;;;5029055;28;45415;-73
2023/04/30 02:16:17;;;;;;;;;21.00;18.25;;;;;;;;5014843;28;45436;-74
2023/04/30 02:18:43;;;;;;;;;25.50;22.25;;;;;;;;5016327;28;45320;-74
2023/04/30 02:21:08;;;;;;;;;22.75;19.00;;;;;;;;5018990;28;45319;-74
2023/04/30 02:23:34;;;;;;;;;31.50;23.00;;;;;;;;5035994;28;45409;-74
2023/04/30 02:25:59;;;;;;;;;21.25;18.75;;;;;;;;5035902;28;45439;-74
2023/04/30 02:28:24;;;;;;;;;28.75;23.25;;;;;;;;5035842;28;45253;-74
2023/04/30 02:30:50;;;;;;;;;21.00;20.75;;;;;;;;5035837;28;45228;-74
2023/04/30 02:33:15;;;;;;;;;23.50;22.00;;;;;;;;5035615;28;45346;-75
2023/04/30 02:35:40;;;;;;;;;22.50;20.75;;;;;;;;5036176;28;45332;-75
2023/04/30 02:38:06;;;;;;;;;25.25;24.75;;;;;;;;5035603;28;45293;-75
2023/04/30 02:40:31;;;;;;;;;20.75;20.50;;;;;;;;5034323;28;45633;-74
2023/04/30 02:42:56;;;;;;;;;22.50;20.50;;;;;;;;5035515;28;46229;-74
2023/04/30 02:45:21;;;;;;;;;22.00;19.00;;;;;;;;5035512;28;45390;-74
2023/04/30 02:47:47;;;;;;;;;22.75;20.00;;;;;;;;5035688;28;45357;-74
2023/04/30 02:50:13;;;;;;;;;19.50;17.00;;;;;;;;5035753;28;45402;-74
2023/04/30 02:52:38;;;;;;;;;25.25;21.50;;;;;;;;5035406;28;46158;-74
2023/04/30 02:55:03;;;;;;;;;22.50;22.50;;;;;;;;5035277;28;45298;-74
2023/04/30 02:57:29;;;;;;;;;27.00;23.00;;;;;;;;5035371;28;45312;-74
2023/04/30 02:59:54;;;;;;;;;24.00;18.75;;;;;;;;5035152;28;46101;-74
2023/04/30 03:02:22;;;;;;;;;25.00;21.75;;;;;;;;5035234;28;46626;-74
2023/04/30 03:04:47;;;;;;;;;22.50;21.00;;;;;;;;5034786;28;45338;-75
2023/04/30 03:07:12;;;;;;;;;22.00;21.50;;;;;;;;5035366;28;45643;-75
2023/04/30 03:09:38;;;;;;;;;21.00;20.50;;;;;;;;5034894;28;45298;-75
2023/04/30 03:12:03;;;;;;;;;21.25;21.00;;;;;;;;5034912;28;45424;-75
2023/04/30 03:14:29;;;;;;;;;22.50;20.00;;;;;;;;5023143;28;45375;-74
2023/04/30 03:16:54;;;;;;;;;24.00;21.00;;;;;;;;5015455;28;45421;-76
2023/04/30 03:19:23;;;;;;;;;21.75;19.00;;;;;;;;5014239;28;45371;-75
2023/04/30 03:21:49;;;;;;;;;22.75;20.75;;;;;;;;5023720;28;46567;-75
2023/04/30 03:24:14;;;;;;;;;23.00;22.00;;;;;;;;5035042;28;45421;-75
2023/04/30 03:26:40;;;;;;;;;25.00;24.00;;;;;;;;5034726;28;45412;-75
2023/04/30 03:29:05;;;;;;;;;22.50;22.00;;;;;;;;5034962;28;45399;-74
2023/04/30 03:31:30;;;;;;;;;25.25;22.00;;;;;;;;5034337;28;46721;-75
2023/04/30 03:33:55;;;;;;;;;29.50;24.50;;;;;;;;5009443;28;45406;-74
2023/04/30 03:36:21;;;;;;;;;23.75;21.00;;;;;;;;5012643;28;45375;-75
2023/04/30 03:38:46;;;;;;;;;25.75;20.75;;;;;;;;5011933;28;45332;-75
2023/04/30 03:41:11;;;;;;;;;20.75;20.50;;;;;;;;5013917;28;45306;-74
2023/04/30 03:43:37;;;;;;;;;12.75;12.75;;;;;;;;5014118;28;45415;-75
2023/04/30 03:46:02;;;;;;;;;19.50;18.50;;;;;;;;5014649;28;45349;-75
2023/04/30 03:48:27;;;;;;;;;24.75;23.75;;;;;;;;5014896;28;45313;-75
2023/04/30 03:50:52;;;;;;;;;19.75;19.75;;;;;;;;5014672;28;47242;-75
2023/04/30 03:53:17;;;;;;;;;23.00;19.25;;;;;;;;5012010;28;45372;-75
2023/04/30 03:55:43;;;;;;;;;22.75;21.50;;;;;;;;5014421;28;45283;-74
2023/04/30 03:58:08;;;;;;;;;21.25;20.00;;;;;;;;5013370;28;45214;-75
2023/04/30 04:00:33;;;;;;;;;20.50;20.00;;;;;;;;5014621;28;45404;-75
2023/04/30 04:02:58;;;;;;;;;23.00;20.25;;;;;;;;5014734;28;45269;-75
2023/04/30 04:05:24;;;;;;;;;21.00;19.25;;;;;;;;5015043;28;45257;-75
2023/04/30 04:07:50;;;;;;;;;21.25;18.00;;;;;;;;5014995;28;45439;-75
2023/04/30 04:10:15;;;;;;;;;21.50;19.75;;;;;;;;5014646;28;46539;-75
2023/04/30 04:12:40;;;;;;;;;25.00;21.75;;;;;;;;5014487;28;45264;-75
2023/04/30 04:15:06;;;;;;;;;24.00;24.00;;;;;;;;5014701;28;45296;-76
2023/04/30 04:17:31;;;;;;;;;26.50;23.50;;;;;;;;5016845;28;45333;-76
2023/04/30 04:19:56;;;;;;;;;23.00;22.50;;;;;;;;5016712;28;47783;-75
2023/04/30 04:22:22;;;;;;;;;25.00;23.50;;;;;;;;5017664;28;45467;-76
2023/04/30 04:24:47;;;;;;;;;27.50;26.50;;;;;;;;5017826;28;45387;-76
2023/04/30 04:27:12;;;;;;;;;31.50;26.50;;;;;;;;5018052;28;45343;-75
2023/04/30 04:29:37;;;;;;;;;33.25;30.25;;;;;;;;5017467;28;46192;-76
2023/04/30 04:32:05;;;;;;;;;36.50;32.00;;;;;;;;5017740;28;45415;-75
2023/04/30 04:34:31;;;;;;;;;42.25;37.00;;;;;;;;5018134;28;45574;-76
2023/04/30 04:36:57;;;;;;;;;38.00;34.00;;;;;;;;5018144;28;45471;-75
2023/04/30 04:39:22;;;;;;;;;52.50;44.50;;;;;;;;5016081;28;47705;-76
2023/04/30 04:41:47;;;;;;;;;56.25;45.75;;;;;;;;5017834;28;45657;-76
2023/04/30 04:44:12;;;;;;;;;55.00;45.50;;;;;;;;5017549;28;45454;-75
2023/04/30 04:46:38;;;;;;;;;50.50;40.75;;;;;;;;5016227;28;45442;-76
2023/04/30 04:49:03;;;;;;;;;54.00;44.00;;;;;;;;5016337;28;45830;-75
2023/04/30 04:51:29;;;;;;;;;56.00;46.00;;;;;;;;5017606;28;45382;-76
2023/04/30 04:53:54;;;;;;;;;54.00;45.50;;;;;;;;5016430;28;45392;-76
2023/04/30 04:56:19;;;;;;;;;56.00;45.50;;;;;;;;5017626;28;45387;-75
2023/04/30 04:58:45;;;;;;;;;51.00;42.00;;;;;;;;5033403;28;45385;-75
2023/04/30 05:01:10;;;;;;;;;47.50;37.50;;;;;;;;5037308;28;45386;-76
2023/04/30 05:03:35;;;;;;;;;43.00;38.25;;;;;;;;5037401;28;45343;-76
2023/04/30 05:06:01;;;;;;;;;48.00;39.75;;;;;;;;5037543;28;45297;-75
2023/04/30 05:08:26;;;;;;;;;42.75;36.25;;;;;;;;5036850;28;45743;-76
2023/04/30 05:10:52;;;;;;;;;30.75;28.75;;;;;;;;5037216;28;45445;-76
2023/04/30 05:13:17;;;;;;;;;52.00;42.00;;;;;;;;5035330;28;45492;-76
2023/04/30 05:15:42;;;;;;;;;47.75;39.25;;;;;;;;5016175;28;45558;-75
2023/04/30 05:18:07;;;;;;;;;46.50;38.00;;;;;;;;5016993;28;45436;-75
2023/04/30 05:20:33;;;;;;;;;49.50;40.00;;;;;;;;5017146;28;45369;-76
2023/04/30 05:22:58;;;;;;;;;47.00;39.50;;;;;;;;5016911;28;45405;-75
2023/04/30 05:25:23;;;;;;;;;42.50;37.50;;;;;;;;5017178;28;45411;-76
2023/04/30 05:27:48;;;;;;;;;36.00;34.50;;;;;;;;5015000;28;47321;-76
2023/04/30 05:30:16;;;;;;;;;36.75;34.00;;;;;;;;5016934;28;45399;-75
2023/04/30 05:32:42;;;;;;;;;39.75;35.00;;;;;;;;5017299;28;45260;-75
2023/04/30 05:35:07;;;;;;;;;43.50;37.25;;;;;;;;5015747;28;45594;-76
2023/04/30 05:37:33;;;;;;;;;39.50;36.25;;;;;;;;5016973;28;46450;-76
2023/04/30 05:39:58;;;;;;;;;36.25;34.75;;;;;;;;5016732;28;45378;-75
2023/04/30 05:42:23;;;;;;;;;38.50;32.00;;;;;;;;5017239;28;45196;-76
2023/04/30 05:44:48;;;;;;;;;41.75;35.75;;;;;;;;5017314;28;45327;-76
2023/04/30 05:47:14;;;;;;;;;45.00;36.00;;;;;;;;5015739;28;46635;-76
2023/04/30 05:49:39;;;;;;;;;39.75;35.75;;;;;;;;5016867;28;45376;-76
2023/04/30 05:52:04;;;;;;;;;47.75;38.25;;;;;;;;5016882;28;45308;-76
2023/04/30 05:54:29;;;;;;;;;38.75;34.75;;;;;;;;5017305;28;45320;-76
2023/04/30 05:56:55;;;;;;;;;46.25;37.50;;;;;;;;5016723;28;45549;-76
2023/04/30 05:59:20;;;;;;;;;47.75;38.00;;;;;;;;5016739;28;45463;-76
2023/04/30 06:01:45;;;;;;;;;39.25;36.00;;;;;;;;5016804;28;45264;-75
2023/04/30 06:04:10;;;;;;;;;36.25;34.25;;;;;;;;5016769;28;45334;-76
2023/04/30 06:06:36;;;;;;;;;37.75;33.50;;;;;;;;5016423;28;45462;-76
2023/04/30 06:09:01;;;;;;;;;43.50;32.75;;;;;;;;5016268;28;45217;-76
2023/04/30 06:11:26;;;;;;;;;34.25;32.50;;;;;;;;5016734;28;45434;-76
2023/04/30 06:13:52;;;;;;;;;40.50;35.25;;;;;;;;5016617;28;45312;-75
2023/04/30 06:16:17;;;;;;;;;36.50;33.25;;;;;;;;5016562;28;45447;-76
2023/04/30 06:18:43;;;;;;;;;37.00;33.00;;;;;;;;5016325;28;45290;-77
2023/04/30 06:21:08;;;;;;;;;39.50;32.75;;;;;;;;5016364;28;45507;-75
2023/04/30 06:23:34;;;;;;;;;34.50;32.25;;;;;;;;5016072;28;45543;-76
2023/04/30 06:25:59;;;;;;;;;37.75;35.00;;;;;;;;5016534;28;46343;-76
2023/04/30 06:28:25;;;;;;;;;41.50;32.00;;;;;;;;5014673;28;45428;-76
2023/04/30 06:30:50;;;;;;;;;38.75;33.50;;;;;;;;4998680;28;45345;-76
2023/04/30 06:33:16;;;;;;;;;44.50;36.75;;;;;;;;5015358;28;45368;-75
2023/04/30 06:35:41;;;;;;;;;43.00;38.25;;;;;;;;5014846;28;48718;-76
2023/04/30 06:38:06;;;;;;;;;41.25;36.50;;;;;;;;5015364;28;45395;-75
2023/04/30 06:40:31;;;;;;;;;36.25;33.00;;;;;;;;5016082;28;45447;-75
2023/04/30 06:42:57;;;;;;;;;45.50;37.75;;;;;;;;5015911;28;45621;-76
2023/04/30 06:45:22;;;;;;;;;49.00;39.00;;;;;;;;5015944;28;45435;-75
2023/04/30 06:47:47;;;;;;;;;41.50;36.50;;;;;;;;5015911;28;45389;-75
2023/04/30 06:50:14;;;;;;;;;42.00;36.25;;;;;;;;5016030;28;45304;-73
2023/04/30 06:52:39;;;;;;;;;50.75;38.75;;;;;;;;5016110;28;45483;-74
2023/04/30 06:55:05;;;;;;;;;42.00;36.50;;;;;;;;5015704;28;46302;-74
2023/04/30 06:57:30;;;;;;;;;47.75;40.50;;;;;;;;5015811;28;45441;-75
2023/04/30 06:59:56;;;;;;;;;42.75;38.25;;;;;;;;5016200;28;45320;-74
2023/04/30 07:02:21;;;;;;;;;36.00;33.75;;;;;;;;5015956;28;45396;-75
2023/04/30 07:04:48;;;;;;;;;42.50;36.50;;;;;;;;5015568;28;46032;-75
2023/04/30 07:07:13;;;;;;;;;36.75;35.50;;;;;;;;5015999;28;45458;-74
2023/04/30 07:09:38;;;;;;;;;53.00;39.50;;;;;;;;5015755;28;45482;-74
2023/04/30 07:12:03;;;;;;;;;44.00;39.25;;;;;;;;5015496;28;45593;-75
2023/04/30 07:14:28;;;;;;;;;35.00;32.75;;;;;;;;5015786;28;46161;-74
2023/04/30 07:16:54;;;;;;;;;40.00;36.25;;;;;;;;5015804;28;45379;-74
2023/04/30 07:19:19;;;;;;;;;34.00;31.00;;;;;;;;5014244;28;45484;-74
2023/04/30 07:21:44;;;;;;;;;41.75;37.25;;;;;;;;5015583;28;45493;-75
2023/04/30 07:24:10;;;;;;;;;45.00;36.50;;;;;;;;5015819;28;45474;-74
2023/04/30 07:26:35;;;;;;;;;48.25;38.75;;;;;;;;5014237;28;45419;-75
2023/04/30 07:29:02;;;;;;;;;46.50;36.50;;;;;;;;5015624;28;45378;-75
2023/04/30 07:31:27;;;;;;;;;43.50;36.00;;;;;;;;5015581;28;45526;-75
2023/04/30 07:33:54;;;;;;;;;45.25;37.25;;;;;;;;5015133;28;45376;-75
2023/04/30 07:36:20;;;;;;;;;36.25;33.25;;;;;;;;5015371;28;45336;-75
2023/04/30 07:38:45;;;;;;;;;42.00;36.25;;;;;;;;5013995;28;45354;-74
2023/04/30 07:41:10;;;;;;;;;40.00;35.00;;;;;;;;5018439;28;45373;-74
2023/04/30 07:43:36;;;;;;;;;39.00;35.25;;;;;;;;5034976;28;45447;-75
2023/04/30 07:46:01;;;;;;;;;44.50;37.25;;;;;;;;5034935;28;45299;-75
2023/04/30 07:48:26;;;;;;;;;28.25;24.25;;;;;;;;5035230;28;45372;-75
2023/04/30 07:50:52;;;;;;;;;44.50;35.75;;;;;;;;5037876;28;45390;-75
2023/04/30 07:53:17;;;;;;;;;33.75;32.00;;;;;;;;5038537;28;45466;-74
2023/04/30 07:55:42;;;;;;;;;43.25;36.00;;;;;;;;5038659;28;45428;-75
2023/04/30 07:58:08;;;;;;;;;39.00;33.75;;;;;;;;5037306;28;45407;-75
2023/04/30 08:00:33;;;;;;;;;41.25;35.75;;;;;;;;5037678;28;45327;-74
2023/04/30 08:02:59;;;;;;;;;49.25;38.25;;;;;;;;5038159;28;46148;-75
2023/04/30 08:05:24;;;;;;;;;41.75;34.25;;;;;;;;5038269;28;45419;-75
2023/04/30 08:07:49;;;;;;;;;45.75;36.50;;;;;;;;5038109;28;45252;-75
2023/04/30 08:10:15;;;;;;;;;36.50;30.50;;;;;;;;5037159;28;45371;-75
2023/04/30 08:12:40;;;;;;;;;39.75;33.50;;;;;;;;5038298;28;45952;-75
2023/04/30 08:15:06;;;;;;;;;42.00;36.50;;;;;;;;5020311;28;45330;-74
2023/04/30 08:17:32;;;;;;;;;36.75;34.00;;;;;;;;5018181;28;45450;-74
2023/04/30 08:19:57;;;;;;;;;39.50;36.00;;;;;;;;5018271;28;45448;-74
2023/04/30 08:22:22;;;;;;;;;36.25;30.25;;;;;;;;5018094;28;45444;-76
2023/04/30 08:24:47;;;;;;;;;38.00;34.00;;;;;;;;5018364;28;45615;-75
2023/04/30 08:27:13;;;;;;;;;42.00;32.50;;;;;;;;5018200;28;45363;-75
2023/04/30 08:29:38;;;;;;;;;37.25;34.50;;;;;;;;5018407;28;45459;-75
2023/04/30 08:32:04;;;;;;;;;39.25;32.25;;;;;;;;5017629;28;45401;-74
2023/04/30 08:34:29;;;;;;;;;45.00;38.25;;;;;;;;5018315;28;45352;-75
2023/04/30 08:36:55;;;;;;;;;36.25;33.25;;;;;;;;5018274;28;45435;-75
2023/04/30 08:39:20;;;;;;;;;43.25;35.25;;;;;;;;5017998;28;45339;-74
2023/04/30 08:41:50;;;;;;;;;39.00;33.25;;;;;;;;5017818;28;47329;-74
2023/04/30 08:44:16;;;;;;;;;38.00;33.75;;;;;;;;5018821;28;45411;-75
2023/04/30 08:46:43;;;;;;;;;39.50;35.75;;;;;;;;5016586;28;45440;-75
2023/04/30 08:49:09;;;;;;;;;33.00;31.00;;;;;;;;5020619;28;45401;-74
2023/04/30 08:51:35;;;;;;;;;28.25;27.75;;;;;;;;5036267;28;45596;-75
2023/04/30 08:54:00;;;;;;;;;37.50;33.00;;;;;;;;5037611;28;45343;-74
2023/04/30 08:56:25;;;;;;;;;46.25;35.50;;;;;;;;5037676;28;45326;-74
2023/04/30 08:58:50;;;;;;;;;42.75;32.50;;;;;;;;5036408;28;45582;-75
2023/04/30 09:01:16;;;;;;;;;43.50;34.75;;;;;;;;5036405;28;46823;-74
2023/04/30 09:03:41;;;;;;;;;32.25;30.00;;;;;;;;5037712;28;45387;-75
2023/04/30 09:06:06;;;;;;;;;36.50;33.00;;;;;;;;5036219;28;45380;-75
2023/04/30 09:08:41;;;;;;;;;30.50;30.50;;;;;;;;5037224;28;45278;-74
2023/04/30 09:11:20;;;;;;;;;36.50;31.25;;;;;;;;5035914;28;47298;-75
2023/04/30 09:13:45;;;;;;;;;34.25;31.25;;;;;;;;5030521;28;45351;-75
2023/04/30 09:16:11;;;;;;;;;35.50;30.25;;;;;;;;5016975;28;45398;-74
2023/04/30 09:18:38;;;;;;;;;35.75;33.00;;;;;;;;5016314;28;45436;-75
2023/04/30 09:21:05;;;;;;;;;29.00;26.75;;;;;;;;5015645;28;47437;-75
2023/04/30 09:23:30;;;;;;;;;33.25;32.25;;;;;;;;5016026;28;45458;-75
2023/04/30 09:25:56;;;;;;;;;36.00;31.00;;;;;;;;5017593;28;45285;-74
2023/04/30 09:28:26;;;;;;;;;29.50;27.00;;;;;;;;5017379;28;45554;-75
2023/04/30 09:30:51;;;;;;;;;24.00;24.00;;;;;;;;5017170;28;46505;-75
2023/04/30 09:33:17;;;;;;;;;30.50;30.25;;;;;;;;5021118;28;45431;-75
2023/04/30 09:35:42;;;;;;;;;26.75;24.00;;;;;;;;5037432;28;45494;-75
2023/04/30 09:38:07;;;;;;;;;27.00;23.75;;;;;;;;5037366;28;45445;-75
2023/04/30 09:40:36;;;;;;;;;26.00;24.75;;;;;;;;5036839;28;46306;-75
2023/04/30 09:43:02;;;;;;;;;27.50;25.50;;;;;;;;5037123;28;45344;-75
2023/04/30 09:45:37;;;;;;;;;25.50;23.50;;;;;;;;5036331;28;45383;-76
2023/04/30 09:48:03;;;;;;;;;31.00;23.75;;;;;;;;5036722;28;45409;-75
2023/04/30 09:50:35;;;;;;;;;22.00;21.50;;;;;;;;5018794;28;45916;-74
2023/04/30 09:53:04;;;;;;;;;29.75;27.25;;;;;;;;5036777;28;45430;-76
2023/04/30 09:55:30;;;;;;;;;25.00;23.50;;;;;;;;5036960;28;45394;-75
2023/04/30 09:57:55;;;;;;;;;21.25;17.75;;;;;;;;5036414;28;45457;-75
2023/04/30 10:00:21;;;;;;;;;26.50;25.75;;;;;;;;5036532;28;46154;-75
2023/04/30 10:02:46;;;;;;;;;28.00;25.50;;;;;;;;5036738;28;45401;-75
2023/04/30 10:05:11;;;;;;;;;24.50;23.50;;;;;;;;5035553;28;45433;-75
2023/04/30 10:07:38;;;;;;;;;23.00;22.75;;;;;;;;5036693;28;45374;-75
2023/04/30 10:10:04;;;;;;;;;22.25;21.25;;;;;;;;5034559;28;45489;-76
2023/04/30 10:12:41;;;;;;;;;26.00;25.00;;;;;;;;5036435;28;45693;-75
2023/04/30 10:15:15;;;;;;;;;20.75;20.00;;;;;;;;5019633;28;45310;-76
2023/04/30 10:17:43;;;;;;;;;24.75;23.25;;;;;;;;5016577;28;45487;-75
2023/04/30 10:20:09;;;;;;;;;27.75;24.50;;;;;;;;5016147;28;45540;-74
2023/04/30 10:22:35;;;;;;;;;25.25;23.00;;;;;;;;5031572;28;45525;-75
2023/04/30 10:25:01;;;;;;;;;26.25;22.75;;;;;;;;5036338;28;45363;-75
2023/04/30 10:27:26;;;;;;;;;27.50;25.25;;;;;;;;5036054;28;45395;-75
2023/04/30 10:29:52;;;;;;;;;25.50;24.00;;;;;;;;5036076;28;46096;-75
2023/04/30 10:32:18;;;;;;;;;18.25;17.50;;;;;;;;5036028;28;45338;-76
2023/04/30 10:35:07;;;;;;;;;24.25;23.75;;;;;;;;5036187;28;45320;-75
2023/04/30 10:37:42;;;;;;;;;20.25;19.00;;;;;;;;5036062;28;45443;-75
2023/04/30 10:40:08;;;;;;;;;21.75;17.00;;;;;;;;5035763;28;46330;-75
2023/04/30 10:42:34;;;;;;;;;19.75;18.50;;;;;;;;5034415;28;45517;-75
2023/04/30 10:45:00;;;;;;;;;17.00;16.00;;;;;;;;5035904;28;45446;-75
2023/04/30 10:47:29;;;;;;;;;12.75;12.75;;;;;;;;5036319;28;45470;-75
2023/04/30 10:50:03;;;;;;;;;15.00;15.00;;;;;;;;5035615;28;46757;-75
2023/04/30 10:52:28;;;;;;;;;15.25;15.25;;;;;;;;5034309;28;45498;-76
2023/04/30 10:54:54;;;;;;;;;14.25;14.25;;;;;;;;5035777;28;45374;-76
2023/04/30 10:57:20;;;;;;;;;14.75;12.25;;;;;;;;5035393;28;45402;-76
2023/04/30 10:59:52;;;;;;;;;13.00;13.00;;;;;;;;5035695;28;46211;-76
2023/04/30 11:02:18;;;;;;;;;14.25;12.00;;;;;;;;5036870;28;45351;-76
2023/04/30 11:05:02;;;;;;;;;39.00;35.25;;;;;;;;5036856;28;45384;-76
2023/04/30 11:07:27;;;;;;;;;18.00;16.00;;;;;;;;5036774;28;45377;-76
2023/04/30 11:09:55;;;;;;;;;15.25;12.25;;;;;;;;5036405;28;46288;-76
2023/04/30 11:12:27;;;;;;;;;15.50;15.50;;;;;;;;5036326;28;45462;-76
2023/04/30 11:14:52;;;;;;;;;16.25;13.00;;;;;;;;5021733;28;45415;-76
2023/04/30 11:17:21;;;;;;;;;12.75;12.75;;;;;;;;5016655;28;45224;-76
2023/04/30 11:19:50;;;;;;;;;8.25;8.25;;;;;;;;5017319;28;45359;-76
2023/04/30 11:22:20;;;;;;;;;8.25;6.00;;;;;;;;5016523;28;45487;-76
2023/04/30 11:24:49;;;;;;;;;9.50;9.00;;;;;;;;5015515;28;45490;-75
2023/04/30 11:27:25;;;;;;;;;13.75;12.50;;;;;;;;5036336;28;45481;-75
2023/04/30 11:29:51;;;;;;;;;13.75;11.25;;;;;;;;5036341;28;46335;-76
2023/04/30 11:32:17;;;;;;;;;13.75;12.50;;;;;;;;5037255;28;45386;-76
2023/04/30 11:34:43;;;;;;;;;14.25;12.25;;;;;;;;5037123;28;45471;-78
2023/04/30 11:37:11;;;;;;;;;12.75;11.75;;;;;;;;5036741;28;45296;-77
2023/04/30 11:39:37;;;;;;;;;9.25;8.00;;;;;;;;5035977;28;45615;-76
2023/04/30 11:42:02;;;;;;;;;8.50;8.50;;;;;;;;5035959;28;45288;-75
2023/04/30 11:44:27;;;;;;;;;9.75;8.75;;;;;;;;5035737;28;45456;-74
2023/04/30 11:46:53;;;;;;;;;7.50;7.00;;;;;;;;5035534;28;45525;-74
2023/04/30 11:49:21;;;;;;;;;13.25;10.00;;;;;;;;5035634;28;46710;-74
2023/04/30 11:51:50;;;;;;;;;5.00;4.50;;;;;;;;5035194;28;45361;-74
2023/04/30 11:54:16;;;;;;;;;10.00;10.00;;;;;;;;5035173;28;45375;-74
2023/04/30 11:56:47;;;;;;;;;9.00;9.00;;;;;;;;5035147;28;45541;-74
2023/04/30 11:59:12;;;;;;;;;9.00;7.50;;;;;;;;5034678;28;47351;-73
2023/04/30 12:01:39;;;;;;;;;11.75;10.50;;;;;;;;5035850;28;45299;-75
2023/04/30 12:04:05;;;;;;;;;8.00;8.00;;;;;;;;5036119;28;45259;-75
2023/04/30 12:06:30;;;;;;;;;9.25;7.25;;;;;;;;5036058;28;45305;-74
2023/04/30 12:08:56;;;;;;;;;9.00;9.00;;;;;;;;5033748;28;48554;-74
2023/04/30 12:11:25;;;;;;;;;12.50;12.50;;;;;;;;5035739;28;45334;-74
2023/04/30 12:13:51;;;;;;;;;7.50;6.75;;;;;;;;5027885;28;45382;-75
2023/04/30 12:16:17;;;;;;;;;26.00;25.50;;;;;;;;5014163;28;45459;-74
2023/04/30 12:18:42;;;;;;;;;9.25;9.25;;;;;;;;5015497;28;45442;-75
2023/04/30 12:21:08;;;;;;;;;10.00;8.75;;;;;;;;5014478;28;45464;-75
2023/04/30 12:23:33;;;;;;;;;8.00;8.00;;;;;;;;5014590;28;45234;-75
2023/04/30 12:25:59;;;;;;;;;8.50;7.75;;;;;;;;5025584;28;45440;-73
2023/04/30 12:28:24;;;;;;;;;10.00;7.75;;;;;;;;5035222;28;45483;-74
2023/04/30 12:30:49;;;;;;;;;8.00;8.00;;;;;;;;5035416;28;45939;-74
2023/04/30 12:33:16;;;;;;;;;9.00;9.00;;;;;;;;5035893;28;45438;-74
2023/04/30 12:35:42;;;;;;;;;8.25;8.25;;;;;;;;5035858;28;45304;-75
2023/04/30 12:38:08;;;;;;;;;6.50;6.00;;;;;;;;5037807;28;46292;-75
2023/04/30 12:40:34;;;;;;;;;9.00;9.00;;;;;;;;5038678;28;45356;-74
2023/04/30 12:43:06;;;;;;;;;8.00;7.00;;;;;;;;5038687;28;45480;-74
2023/04/30 12:45:50;;;;;;;;;10.50;10.50;;;;;;;;5038634;28;45494;-74
2023/04/30 12:48:15;;;;;;;;;7.50;7.50;;;;;;;;5037460;28;47713;-73
2023/04/30 12:50:41;;;;;;;;;7.00;7.00;;;;;;;;5037893;28;45308;-74
2023/04/30 12:53:07;;;;;;;;;7.00;6.75;;;;;;;;5038464;28;45394;-74
2023/04/30 12:55:34;;;;;;;;;6.50;6.50;;;;;;;;5038784;28;45610;-74
2023/04/30 12:58:03;;;;;;;;;8.75;7.25;;;;;;;;5038392;28;46689;-74
2023/04/30 13:00:28;;;;;;;;;9.75;9.50;;;;;;;;5038315;28;45507;-73
2023/04/30 13:02:54;;;;;;;;;10.75;10.00;;;;;;;;5038418;28;45477;-74
2023/04/30 13:05:19;;;;;;;;;10.50;10.50;;;;;;;;5037724;28;45407;-75
2023/04/30 13:07:44;;;;;;;;;9.50;9.50;;;;;;;;5037075;28;45417;-74
2023/04/30 13:10:10;;;;;;;;;9.25;9.25;;;;;;;;5038219;28;45566;-74
2023/04/30 13:12:35;;;;;;;;;9.00;9.00;;;;;;;;5038138;28;45426;-74
2023/04/30 13:15:02;;;;;;;;;10.75;10.00;;;;;;;;5021868;28;45389;-73
2023/04/30 13:17:28;;;;;;;;;8.50;8.50;;;;;;;;5017622;28;45532;-74
2023/04/30 13:19:53;;;;;;;;;9.00;8.75;;;;;;;;5016172;28;45506;-73
2023/04/30 13:22:18;;;;;;;;;8.75;8.50;;;;;;;;5017940;28;45504;-74
2023/04/30 13:24:43;;;;;;;;;8.50;8.50;;;;;;;;5016299;28;45707;-74
2023/04/30 13:27:09;;;;;;;;;7.50;7.50;;;;;;;;5016687;28;48420;-74
2023/04/30 13:29:34;;;;;;;;;7.25;6.25;;;;;;;;5017828;28;45361;-74
2023/04/30 13:31:59;;;;;;;;;9.50;8.00;;;;;;;;5000212;28;45673;-74
2023/04/30 13:34:25;;;;;;;;;8.50;8.50;;;;;;;;5016340;28;45636;-74
2023/04/30 13:36:51;;;;;;;;;7.75;7.75;;;;;;;;5016469;28;46817;-73
2023/04/30 13:39:16;;;;;;;;;7.50;7.25;;;;;;;;5018896;28;45369;-75
2023/04/30 13:41:41;;;;;;;;;11.00;11.00;;;;;;;;5018981;28;45393;-74
2023/04/30 13:44:07;;;;;;;;;8.50;8.50;;;;;;;;5020014;28;45386;-74
2023/04/30 13:46:32;;;;;;;;;9.25;9.00;;;;;;;;5024485;28;45400;-75
2023/04/30 13:48:57;;;;;;;;;8.75;8.75;;;;;;;;5025213;28;45407;-75
2023/04/30 13:51:23;;;;;;;;;7.25;7.25;;;;;;;;5026068;28;45352;-74
2023/04/30 13:53:48;;;;;;;;;7.25;7.25;;;;;;;;5025609;28;45415;-74
2023/04/30 13:56:14;;;;;;;;;12.00;10.75;;;;;;;;5025155;28;46073;-74
2023/04/30 13:58:39;;;;;;;;;8.25;8.25;;;;;;;;5025187;28;45315;-73
2023/04/30 14:01:04;;;;;;;;;9.00;9.00;;;;;;;;5024120;28;45339;-74
2023/04/30 14:03:29;;;;;;;;;8.75;8.25;;;;;;;;5025970;28;45458;-74
2023/04/30 14:05:55;;;;;;;;;7.50;7.50;;;;;;;;5023006;28;47433;-74
2023/04/30 14:08:20;;;;;;;;;14.00;11.00;;;;;;;;5024576;28;45454;-74
2023/04/30 14:10:46;;;;;;;;;19.00;18.25;;;;;;;;5025491;28;44702;-74
2023/04/30 14:13:11;;;;;;;;;12.50;12.50;;;;;;;;5029062;28;44989;-74
2023/04/30 14:15:37;;;;;;;;;9.25;8.00;;;;;;;;5024771;28;45486;-74